createdAt,value
2023-04-08T00:03:15.083Z,41.96
2023-04-08T00:08:18.641Z,42.00
2023-04-08T00:13:23.561Z,41.82
2023-04-08T00:18:27.170Z,41.46
2023-04-08T00:23:30.966Z,41.47
2023-04-08T00:28:36.380Z,41.94
2023-04-08T00:33:39.972Z,41.91
2023-04-08T00:38:43.452Z,41.91
2023-04-08T00:43:48.383Z,41.54
2023-04-08T00:48:52.145Z,41.78
2023-04-08T00:53:56.000Z,42.36
2023-04-08T00:59:02.164Z,43.44
2023-04-08T01:04:08.604Z,42.63
2023-04-08T01:09:12.783Z,44.14
2023-04-08T01:14:22.248Z,42.74
2023-04-08T01:19:30.705Z,42.70
2023-04-08T01:24:38.002Z,43.09
2023-04-08T01:29:43.366Z,43.48
2023-04-08T01:34:47.088Z,43.08
2023-04-08T01:39:51.499Z,43.11
2023-04-08T01:44:57.716Z,42.99
2023-04-08T01:50:01.672Z,43.46
2023-04-08T01:55:06.139Z,44.36
2023-04-08T02:00:12.531Z,43.51
2023-04-08T02:05:24.806Z,44.69
2023-04-08T02:10:28.647Z,43.30
2023-04-08T02:15:36.116Z,44.38
2023-04-08T02:20:42.774Z,43.34
2023-04-08T02:25:47.577Z,44.38
2023-04-08T02:30:53.522Z,43.17
2023-04-08T02:35:57.842Z,44.37
2023-04-08T02:41:01.450Z,44.04
2023-04-08T02:46:07.466Z,43.86
2023-04-08T02:51:13.041Z,43.96
2023-04-08T02:56:16.506Z,42.85
2023-04-08T03:01:21.587Z,42.69
2023-04-08T03:06:25.072Z,44.63
2023-04-08T03:11:28.490Z,43.35
2023-04-08T03:16:33.522Z,43.14
2023-04-08T03:21:37.133Z,44.53
2023-04-08T03:26:40.637Z,42.99
2023-04-08T03:31:45.496Z,43.50
2023-04-08T03:36:48.997Z,44.01
2023-04-08T03:41:52.427Z,43.66
2023-04-08T03:46:57.312Z,44.69
2023-04-08T03:52:00.799Z,43.90
2023-04-08T03:57:05.015Z,43.41
2023-04-08T04:02:09.998Z,44.13
2023-04-08T04:07:13.544Z,44.71
2023-04-08T04:12:17.100Z,44.23
2023-04-08T04:17:22.123Z,45.56
2023-04-08T04:22:25.740Z,45.06
2023-04-08T04:27:29.264Z,46.44
2023-04-08T04:32:34.491Z,45.38
2023-04-08T04:37:37.998Z,46.28
2023-04-08T04:42:41.567Z,47.33
2023-04-08T04:47:46.491Z,47.15
2023-04-08T04:52:50.402Z,47.07
2023-04-08T04:57:53.978Z,46.02
2023-04-08T05:02:58.871Z,46.44
2023-04-08T05:08:02.766Z,46.74
2023-04-08T05:13:06.389Z,46.94
2023-04-08T05:18:11.396Z,49.42
2023-04-08T05:23:14.996Z,47.56
2023-04-08T05:28:18.531Z,47.01
2023-04-08T05:33:23.469Z,48.48
2023-04-08T05:38:26.913Z,46.42
2023-04-08T05:43:30.373Z,46.66
2023-04-08T05:48:35.405Z,46.51
2023-04-08T05:53:38.971Z,46.58
2023-04-08T05:58:42.488Z,46.82
2023-04-08T06:03:47.618Z,45.97
2023-04-08T06:08:51.848Z,46.00
2023-04-08T06:13:55.690Z,45.45
2023-04-08T06:19:00.639Z,46.98
2023-04-08T06:24:04.572Z,45.47
2023-04-08T06:29:08.096Z,44.86
2023-04-08T06:34:12.916Z,45.92
2023-04-08T06:39:16.991Z,45.91
2023-04-08T06:44:20.641Z,45.62
2023-04-08T06:49:27.055Z,44.93
2023-04-08T06:54:30.602Z,46.27
2023-04-08T06:59:34.156Z,45.58
2023-04-08T07:04:39.013Z,44.35
2023-04-08T07:09:43.367Z,48.38
2023-04-08T07:14:46.870Z,45.10
2023-04-08T07:19:51.683Z,45.94
2023-04-08T07:24:55.373Z,44.12
2023-04-08T07:30:01.633Z,43.90
2023-04-08T07:35:07.554Z,43.19
2023-04-08T07:40:12.098Z,43.00
2023-04-08T07:45:15.747Z,42.94
2023-04-08T07:50:20.729Z,44.33
2023-04-08T07:55:24.227Z,43.18
2023-04-08T08:00:30.123Z,43.25
2023-04-08T08:05:35.007Z,42.88
2023-04-08T08:10:38.661Z,43.00
2023-04-08T08:15:42.100Z,42.66
2023-04-08T08:20:47.020Z,42.33
2023-04-08T08:25:50.642Z,42.56
2023-04-08T08:30:54.158Z,44.03
2023-04-08T08:35:59.143Z,43.22
2023-04-08T08:41:06.138Z,43.37
2023-04-08T08:46:11.457Z,43.19
2023-04-08T08:51:16.381Z,42.19
2023-04-08T08:56:19.923Z,42.90
2023-04-08T09:01:32.353Z,44.70
2023-04-08T09:06:37.559Z,42.10
2023-04-08T09:11:42.632Z,42.45
2023-04-08T09:16:46.589Z,42.46
2023-04-08T09:22:09.730Z,42.44
2023-04-08T09:27:13.910Z,42.04
2023-04-08T09:32:17.477Z,43.03
2023-04-08T09:37:22.274Z,43.47
2023-04-08T09:42:26.245Z,42.56
2023-04-08T09:47:30.343Z,42.37
2023-04-08T09:52:40.307Z,43.01
2023-04-08T09:57:46.609Z,41.64
2023-04-08T10:02:56.685Z,40.95
2023-04-08T10:08:01.874Z,41.26
2023-04-08T10:13:05.663Z,41.81
2023-04-08T10:18:32.734Z,41.31
2023-04-08T10:23:59.597Z,41.66
2023-04-08T10:29:36.803Z,41.76
2023-04-08T10:34:53.091Z,41.41
2023-04-08T10:39:57.895Z,41.76
2023-04-08T10:45:03.052Z,41.60
2023-04-08T10:50:14.103Z,42.14
2023-04-08T10:55:23.993Z,41.98
2023-04-08T11:00:34.732Z,41.09
2023-04-08T11:05:38.985Z,40.98
2023-04-08T11:10:44.961Z,41.51
2023-04-08T11:15:48.567Z,41.81
2023-04-08T11:20:52.401Z,41.62
2023-04-08T11:25:57.419Z,41.75
2023-04-08T11:31:01.004Z,40.88
2023-04-08T11:36:05.632Z,41.14
2023-04-08T11:41:11.529Z,40.89
2023-04-08T11:46:15.295Z,40.77
2023-04-08T11:51:18.933Z,42.52
2023-04-08T11:56:24.595Z,42.36
2023-04-08T12:01:28.242Z,42.17
2023-04-08T12:06:31.934Z,41.70
2023-04-08T12:11:36.695Z,42.26
2023-04-08T12:16:40.181Z,41.52
2023-04-08T12:21:43.675Z,41.46
2023-04-08T12:26:48.479Z,40.73
2023-04-08T12:31:53.334Z,40.44
2023-04-08T12:36:56.880Z,42.96
2023-04-08T12:42:01.663Z,41.38
2023-04-08T12:47:05.389Z,41.66
2023-04-08T12:52:08.990Z,41.90
2023-04-08T12:57:13.806Z,40.97
2023-04-08T13:02:17.360Z,42.71
2023-04-08T13:07:20.782Z,41.66
2023-04-08T13:12:25.568Z,42.11
2023-04-08T13:17:29.130Z,40.50
2023-04-08T13:22:33.578Z,40.63
2023-04-08T13:27:38.417Z,40.54
2023-04-08T13:32:41.980Z,40.50
2023-04-08T13:37:45.571Z,40.41
2023-04-08T13:42:50.423Z,39.62
2023-04-08T13:47:54.029Z,39.32
2023-04-08T13:52:58.001Z,40.11
2023-04-08T13:58:04.937Z,39.01
2023-04-08T14:03:12.479Z,39.19
2023-04-08T14:08:16.029Z,39.16
2023-04-08T14:13:20.884Z,39.67
2023-04-08T14:18:24.376Z,38.76
2023-04-08T14:23:27.781Z,38.46
2023-04-08T14:28:32.608Z,39.44
2023-04-08T14:33:36.136Z,39.56
2023-04-08T14:38:40.101Z,39.20
2023-04-08T14:43:44.859Z,39.10
2023-04-08T14:48:48.428Z,39.90
2023-04-08T14:53:51.890Z,39.35
2023-04-08T14:58:56.927Z,39.66
2023-04-08T15:04:00.676Z,39.74
2023-04-08T15:09:05.968Z,39.85
2023-04-08T15:14:13.798Z,39.64
2023-04-08T15:19:19.708Z,40.29
2023-04-08T15:24:23.133Z,40.13
2023-04-08T15:29:28.048Z,39.83
2023-04-08T15:34:31.440Z,40.58
2023-04-08T15:39:34.948Z,41.93
2023-04-08T15:44:39.731Z,40.89
2023-04-08T15:49:43.202Z,41.02
2023-04-08T15:54:47.163Z,41.04
2023-04-08T15:59:52.039Z,41.23
2023-04-08T16:04:55.482Z,40.60
2023-04-08T16:09:59.544Z,41.30
2023-04-08T16:15:04.660Z,41.59
2023-04-08T16:20:08.955Z,41.39
2023-04-08T16:25:12.323Z,42.15
2023-04-08T16:30:17.132Z,42.03
2023-04-08T16:35:22.295Z,43.06
2023-04-08T16:40:25.702Z,43.07
2023-04-08T16:45:30.834Z,42.27
2023-04-08T16:50:34.334Z,42.08
2023-04-08T16:55:37.975Z,41.99
2023-04-08T17:00:42.721Z,42.01
2023-04-08T17:05:46.182Z,42.07
2023-04-08T17:10:50.062Z,41.39
2023-04-08T17:15:54.841Z,42.01
2023-04-08T17:20:58.258Z,41.96
2023-04-08T17:26:03.725Z,42.09
2023-04-08T17:31:08.510Z,42.90
2023-04-08T17:36:12.025Z,42.12
2023-04-08T17:41:21.576Z,41.96
2023-04-08T17:46:34.997Z,41.87
2023-04-08T17:51:38.405Z,41.62
2023-04-08T17:56:44.674Z,41.93
2023-04-08T18:01:50.137Z,42.13
2023-04-08T18:06:53.618Z,41.91
2023-04-08T18:11:57.209Z,41.91
2023-04-08T18:17:02.322Z,41.73
2023-04-08T18:22:05.799Z,41.59
2023-04-08T18:27:09.822Z,41.80
2023-04-08T18:32:14.577Z,41.73
2023-04-08T18:37:19.915Z,41.55
2023-04-08T18:42:23.411Z,41.38
2023-04-08T18:47:28.511Z,41.82
2023-04-08T18:52:32.222Z,42.17
2023-04-08T18:57:35.681Z,41.54
2023-04-08T19:02:40.553Z,41.41
2023-04-08T19:07:44.029Z,41.50
2023-04-08T19:12:48.259Z,41.67
2023-04-08T19:17:53.219Z,41.34
2023-04-08T19:22:57.196Z,41.00
2023-04-08T19:28:00.688Z,41.80
2023-04-08T19:33:05.977Z,41.62
2023-04-08T19:38:09.412Z,41.58
2023-04-08T19:43:12.897Z,41.92
2023-04-08T19:48:17.805Z,41.97
2023-04-08T19:53:21.269Z,42.07
2023-04-08T19:58:24.678Z,42.44
2023-04-08T20:03:29.680Z,42.31
2023-04-08T20:08:34.555Z,41.73
2023-04-08T20:13:39.774Z,42.09
2023-04-08T20:18:44.611Z,42.65
2023-04-08T20:23:48.061Z,42.48
2023-04-08T20:28:51.583Z,42.43
2023-04-08T20:33:56.483Z,43.39
2023-04-08T20:39:00.040Z,43.07
2023-04-08T20:44:06.009Z,42.54
2023-04-08T20:49:10.818Z,43.54
2023-04-08T20:54:14.479Z,43.26
2023-04-08T20:59:17.881Z,42.61
2023-04-08T21:04:24.358Z,42.69
2023-04-08T21:09:27.879Z,42.56
2023-04-08T21:14:32.048Z,42.31
2023-04-08T21:19:36.894Z,42.53
2023-04-08T21:24:40.576Z,43.89
2023-04-08T21:29:44.038Z,43.83
2023-04-08T21:34:48.865Z,43.37
2023-04-08T21:39:53.730Z,43.16
2023-04-08T21:44:57.631Z,43.20
2023-04-08T21:50:02.445Z,44.39
2023-04-08T21:55:07.173Z,44.73
2023-04-08T22:00:13.065Z,45.29
2023-04-08T22:05:20.926Z,45.22
2023-04-08T22:10:24.469Z,46.72
2023-04-08T22:15:28.361Z,47.87
2023-04-08T22:20:33.161Z,48.24
2023-04-08T22:25:36.618Z,47.69
2023-04-08T22:30:40.155Z,47.88
2023-04-08T22:35:45.049Z,46.53
2023-04-08T22:40:48.472Z,46.13
2023-04-08T22:45:52.260Z,46.12
2023-04-08T22:50:57.250Z,45.63
2023-04-08T22:56:00.720Z,45.46
2023-04-08T23:01:11.596Z,46.18
2023-04-08T23:06:16.636Z,46.58
2023-04-08T23:11:20.040Z,46.96
2023-04-08T23:16:23.516Z,48.48
2023-04-08T23:21:28.355Z,48.11
2023-04-08T23:26:31.819Z,48.12
2023-04-08T23:31:35.654Z,47.56
2023-04-08T23:36:40.587Z,48.53
2023-04-08T23:41:44.061Z,48.21
2023-04-08T23:46:47.626Z,48.87
2023-04-08T23:51:53.526Z,48.84
2023-04-08T23:56:57.247Z,48.42
